< < Back
Terminal Aerodrome Forecast


Current Version              Previous Versions:   1  2  3  4  5  6  7  8  9  

Terminal Aerodrome Forecast

376
FTUS44 KMOB 260528
TAFMOB
TAF
KMOB 260528Z 2606/2706 32004KT P6SM FEW250
     FM261800 09010KT P6SM VCTS SCT030CB SCT080
     FM270100 11003KT P6SM FEW050 SCT250=

Latest METAR

074
SAUS80 KWBC 270400 RRA
MTRMOB
METAR KMOB 270356Z 07003KT 10SM CLR 25/23 A3001 RMK AO2 SLP158
T02500228


USA.gov is the U.S. government's official web portal to all federal, state and local government web resources and services.